Chongqing Jiangbei International Airport
ZUCK : now visible

Airfield :











YOU CAN JOIN US ON...

 
LOGIN :

Register | Disclaimer

   EN    FR    IT 

 









Legend :    VFR   Marginal VFR   IFR   Intensive IFR   Very Intensive IFR
Visi :
Ceiling :
>= 8 km
>= 3000ft
5 to 8 km
1000 to 3000 ft
1500m to 5 km
500 to 1000 ft
800 to 1500m
200 to 500 ft
< 800m
< 200 ft
Symbols :   Thunderstorms  Fog  Heavy snow  Heavy precipitations  Wind > 20 kt






- Airport Elevation : 1365 ft
- IATA code : CKG


ZUCK - Chongqing Jiangbei International

CURRENT METAR :
  • 130900Z 06004MPS 9999 -SHRA FEW026 SCT050 30/27 Q0997 BECMG TL0930 SHRA SCT040 FEW050CB

EXPIRED METARs :
  • 130800Z 09005MPS 070V140 9999 FEW033 SCT050 32/25 Q0997 NOSIG
  • 130700Z 09003MPS 040V140 9999 FEW026 35/25 Q0998 NOSIG
  • 130600Z VRB02MPS 9999 FEW027 34/26 Q0998 NOSIG
  • 130500Z 04002MPS 350V080 9999 FEW027 33/26 Q0999 NOSIG

TAF AMD TAF ZUCK
Valid from the 13 at 06:00 until the 14 at 06:00 UTC


130918Z 1306/1406 12003MPS 6000 SCT040 TX34/1406Z TN26/1322Z
TEMPO 1310/1312 TSRA SCT040 FEW050CB
BECMG 1314/1315 SHRA SCT040 FEW050CB
BECMG 1316/1317 NSW SCT040
ZPKM FIR / Asia



MET'MAP, your aeronautical weather chart ! - Copyright ORBIFLY December 2007 - Disclaimer

ORBIFLY MET'MAP TEAM :

Programming & Development : Alexandra Zaïnal
Original concept : Baudouin d'Aumeries
Technical & hardware support : Manuel Goepfert
Assistance : Marc-Olivier Méhu




SOURCES & CREDITS :

   NOAA       Earth
Advisory